Mackinaw City, MI

7:47 AM EST on December 09, 2016 (GMT -0500)
Mackinac Bridge | | Change Station
Active Advisory: Winter Weather Advisory

Elev 587 ft 45.79 °N, 84.73 °W | Updated 5 seconds ago

Overcast
Overcast
23.0 °F
Feels Like 12 °F
N
11.0
Wind Variable Wind from North

Today
High -- | Low -- °F
--% Chance of Precip.
Yesterday
High -- | Low -- °F
Precip. -- in
Pressure 30.28 in
Visibility 10.0 miles
Clouds Overcast 4400 ft
Windchill 12 °F
Dew Point 18 °F
Humidity 81%
Rainfall Not available.
Snow Depth Not available.
8:08 AM 4:54 PM
Waxing Gibbous, 73% visible
METAR KMCD 091234Z AUTO 02005KT 10SM OVC044 M06/M10 A3028 RMK AO2 T10631098
Pressure 30.28 in
Visibility 10.0 miles
Clouds Overcast 4400 ft
Windchill 12 °F
Dew Point 18 °F
Humidity 81%
Rainfall Not available.
Snow Depth Not available.
8:08 AM 4:54 PM
Waxing Gibbous, 73% visible
METAR KMCD 091234Z AUTO 02005KT 10SM OVC044 M06/M10 A3028 RMK AO2 T10631098

10-Day Weather Forecast

Almanac

Astronomy

Dec. 09, 2016 Rise Set
Actual Time
Civil Twilight
Nautical Twilight
Astronomical Twilight
Moon
Length of Visible Light
Length of Day
Tomorrow will be .
, % of the Moon is Illuminated

Today's Extremes

State Highs State Lows

Community

WunderPhotos

Upload Photos

1,956,407 photos uploaded!

WunderBlog® & News

Nearby

Air Quality

  Air Quality AQ Index Pollutant
Not available.

Snow Depth

Station Depth Elevation

Earthquake Activity

City Distance Mag. Time & Date
Minimum magnitude displayed is 2.5.

Coastal Water Temperatures

Place Temperature

Stations

Nearby Weather Stations

Station Location Temp. Windchill Dew Point Humidity Wind Precip. Elev Updated Type
                   

Watches & Warnings

Winter Weather Advisory
Issued: 3:47 AM EST Dec. 9, 2016 – National Weather Service

... Winter Weather Advisory remains in effect until 3 PM EST this
afternoon...

* periods of heavy lake effect snow showers will continue through
today.

* Where snow showers persist... storm total snow accumulations of 4
to 8 inches are expected through today.

* Look for greatly reduced visibilities at times.

* Plan on difficult driving conditions... particularly along the
I- 75 corridor where brief whiteout conditions will occur.

Precautionary/preparedness actions...

A Winter Weather Advisory for snow means periods of snow will
cause primarily travel difficulties. Be prepared for snow covered
roads and limited visibilities... and use caution while driving.
For the latest Road conditions... go to the mdot website at
Michigan.Gov.